Hozan Maru — JJ4010 — position and weather

sailwx.info

Track history (hours):
 
Tides and Currents Weather Stations Pressure Air Temp Water Temp Dewpoint Dewpoint Depression Visibility Wind Speed Wind Dir Waves Ship Positions

Hozan Maru

Last reported at 2014-Jul-25 08:30 UTC. Time now 2014-Jul-26 17:17 UTC.
Position N 34°40' E 134°51'.

Length 38 m; draft 3.6 m.

Type: Tug. MMSI: 431401501.

Date/timePositionNaut miles runAvg speedWind from/ knotsBaromVisibWave heightAir tempDewpointWater temp
2014-Jul-25 08:30N 34°40' E 134°51'1213.3
2014-Jul-25 07:33N 34°37' E 135°05'1313.1
2014-Jul-25 06:34N 34°38' E 135°21'4 1.3
2014-Jul-25 03:10N 34°40' E 135°26'1 2.1
2014-Jul-25 02:33N 34°39' E 135°26'0 0.5
2014-Jul-25 01:33N 34°39' E 135°26'0 0.0
2014-Jul-25 00:33N 34°39' E 135°26'0 0.0
2014-Jul-24 23:32N 34°39' E 135°26'7 7.7
2014-Jul-24 22:33N 34°32' E 135°24'2 1.9
2014-Jul-24 21:33N 34°33' E 135°23'3 0.3
2014-Jul-24 08:33N 34°37' E 135°24'2 2.2
2014-Jul-24 07:32N 34°39' E 135°25'2 0.0
2014-Jul-22 11:33N 34°40' E 135°27'9 9.5
2014-Jul-22 10:33N 34°31' E 135°23'8 8.1
2014-Jul-22 09:33N 34°39' E 135°25'2 0.2
2014-Jul-21 23:33N 34°40' E 135°27'5 5.0
2014-Jul-21 22:33N 34°35' E 135°27'4 4.0
2014-Jul-21 21:33N 34°37' E 135°22'5 0.2
2014-Jul-20 13:32N 34°40' E 135°27'7 7.6
2014-Jul-20 12:33N 34°33' E 135°26'1 0.7
2014-Jul-20 11:34N 34°33' E 135°26'0 0.0
2014-Jul-20 10:33N 34°33' E 135°26'0 0.0
2014-Jul-20 09:31N 34°33' E 135°26'0 0.0
2014-Jul-20 08:34N 34°33' E 135°26'0 0.1
2014-Jul-20 07:34N 34°33' E 135°27'0 0.0
2014-Jul-20 06:34N 34°33' E 135°27'0 0.0
2014-Jul-20 05:33N 34°33' E 135°27'4 3.6
2014-Jul-20 04:32N 34°34' E 135°22'1 0.6
2014-Jul-20 03:33N 34°34' E 135°23'1 0.8
2014-Jul-20 02:15N 34°34' E 135°24'2 2.4
2014-Jul-20 01:33N 34°36' E 135°24'2 0.1
2014-Jul-19 06:33N 34°37' E 135°25'2 1.7
2014-Jul-19 05:33N 34°38' E 135°23'5 4.2
2014-Jul-19 04:28N 34°40' E 135°27'0 0.0
2014-Jul-19 03:30N 34°40' E 135°27'0 0.0
2014-Jul-19 02:33N 34°40' E 135°27'4 4.3
2014-Jul-19 01:33N 34°37' E 135°23'4 3.3
2014-Jul-19 00:22N 34°34' E 135°24'4 4.4
2014-Jul-18 23:33N 34°37' E 135°23'3 0.2
2014-Jul-18 09:18N 34°39' E 135°26'6 7.8
2014-Jul-18 08:31N 34°33' E 135°25'1 0.8
2014-Jul-18 07:33N 34°33' E 135°26'3 3.2
2014-Jul-18 06:33N 34°31' E 135°24'0 0.0
2014-Jul-18 05:33N 34°31' E 135°24'0 0.0
2014-Jul-18 04:33N 34°31' E 135°24'0 0.0
2014-Jul-18 03:32N 34°31' E 135°24'0 0.0
2014-Jul-18 02:33N 34°31' E 135°24'0 0.0
2014-Jul-18 01:33N 34°31' E 135°24'2 2.3
2014-Jul-18 00:33N 34°33' E 135°22'8 7.8
2014-Jul-17 23:32N 34°40' E 135°26'1 0.1
2014-Jul-17 11:30N 34°40' E 135°27'1111.9
2014-Jul-17 10:33N 34°37' E 135°14'1412.2
2014-Jul-17 09:26N 34°38' E 134°57'1 0.2
2014-Jul-17 04:33N 34°38' E 134°58'1111.1
2014-Jul-17 03:33N 34°38' E 135°12'1211.9
2014-Jul-17 02:33N 34°40' E 135°26'1 0.0
2014-Jul-16 03:28N 34°39' E 135°25'0 0.3
2014-Jul-16 02:30N 34°39' E 135°26'2 2.4
2014-Jul-16 01:33N 34°38' E 135°23'5 5.0
2014-Jul-16 00:30N 34°33' E 135°25'4 4.0
2014-Jul-15 23:33N 34°33' E 135°21'4 4.3
2014-Jul-15 22:33N 34°37' E 135°23'  
Track history (hours):
 
Tides and Currents Weather Stations Pressure Air Temp Water Temp Dewpoint Dewpoint Depression Visibility Wind Speed Wind Dir Waves Ship Positions

Hozan Maru

Last reported at 2014-Jul-25 08:30 UTC. Time now 2014-Jul-26 17:17 UTC.
Position N 34°40' E 134°51'.

Length 38 m; draft 3.6 m.

Type: Tug. MMSI: 431401501.

Date/timePositionNaut miles runAvg speedWind from/ knotsBaromVisibWave heightAir tempDewpointWater temp
2014-Jul-25 08:30N 34°40' E 134°51'1213.3
2014-Jul-25 07:33N 34°37' E 135°05'1313.1
2014-Jul-25 06:34N 34°38' E 135°21'4 1.3
2014-Jul-25 03:10N 34°40' E 135°26'1 2.1
2014-Jul-25 02:33N 34°39' E 135°26'0 0.5
2014-Jul-25 01:33N 34°39' E 135°26'0 0.0
2014-Jul-25 00:33N 34°39' E 135°26'0 0.0
2014-Jul-24 23:32N 34°39' E 135°26'7 7.7
2014-Jul-24 22:33N 34°32' E 135°24'2 1.9
2014-Jul-24 21:33N 34°33' E 135°23'3 0.3
2014-Jul-24 08:33N 34°37' E 135°24'2 2.2
2014-Jul-24 07:32N 34°39' E 135°25'2 0.0
2014-Jul-22 11:33N 34°40' E 135°27'9 9.5
2014-Jul-22 10:33N 34°31' E 135°23'8 8.1
2014-Jul-22 09:33N 34°39' E 135°25'2 0.2
2014-Jul-21 23:33N 34°40' E 135°27'5 5.0
2014-Jul-21 22:33N 34°35' E 135°27'4 4.0
2014-Jul-21 21:33N 34°37' E 135°22'5 0.2
2014-Jul-20 13:32N 34°40' E 135°27'7 7.6
2014-Jul-20 12:33N 34°33' E 135°26'1 0.7
2014-Jul-20 11:34N 34°33' E 135°26'0 0.0
2014-Jul-20 10:33N 34°33' E 135°26'0 0.0
2014-Jul-20 09:31N 34°33' E 135°26'0 0.0
2014-Jul-20 08:34N 34°33' E 135°26'0 0.1
2014-Jul-20 07:34N 34°33' E 135°27'0 0.0
2014-Jul-20 06:34N 34°33' E 135°27'0 0.0
2014-Jul-20 05:33N 34°33' E 135°27'4 3.6
2014-Jul-20 04:32N 34°34' E 135°22'1 0.6
2014-Jul-20 03:33N 34°34' E 135°23'1 0.8
2014-Jul-20 02:15N 34°34' E 135°24'2 2.4
2014-Jul-20 01:33N 34°36' E 135°24'2 0.1
2014-Jul-19 06:33N 34°37' E 135°25'2 1.7
2014-Jul-19 05:33N 34°38' E 135°23'5 4.2
2014-Jul-19 04:28N 34°40' E 135°27'0 0.0
2014-Jul-19 03:30N 34°40' E 135°27'0 0.0
2014-Jul-19 02:33N 34°40' E 135°27'4 4.3
2014-Jul-19 01:33N 34°37' E 135°23'4 3.3
2014-Jul-19 00:22N 34°34' E 135°24'4 4.4
2014-Jul-18 23:33N 34°37' E 135°23'3 0.2
2014-Jul-18 09:18N 34°39' E 135°26'6 7.8
2014-Jul-18 08:31N 34°33' E 135°25'1 0.8
2014-Jul-18 07:33N 34°33' E 135°26'3 3.2
2014-Jul-18 06:33N 34°31' E 135°24'0 0.0
2014-Jul-18 05:33N 34°31' E 135°24'0 0.0
2014-Jul-18 04:33N 34°31' E 135°24'0 0.0
2014-Jul-18 03:32N 34°31' E 135°24'0 0.0
2014-Jul-18 02:33N 34°31' E 135°24'0 0.0
2014-Jul-18 01:33N 34°31' E 135°24'2 2.3
2014-Jul-18 00:33N 34°33' E 135°22'8 7.8
2014-Jul-17 23:32N 34°40' E 135°26'1 0.1
2014-Jul-17 11:30N 34°40' E 135°27'1111.9
2014-Jul-17 10:33N 34°37' E 135°14'1412.2
2014-Jul-17 09:26N 34°38' E 134°57'1 0.2
2014-Jul-17 04:33N 34°38' E 134°58'1111.1
2014-Jul-17 03:33N 34°38' E 135°12'1211.9
2014-Jul-17 02:33N 34°40' E 135°26'1 0.0
2014-Jul-16 03:28N 34°39' E 135°25'0 0.3
2014-Jul-16 02:30N 34°39' E 135°26'2 2.4
2014-Jul-16 01:33N 34°38' E 135°23'5 5.0
2014-Jul-16 00:30N 34°33' E 135°25'4 4.0
2014-Jul-15 23:33N 34°33' E 135°21'4 4.3
2014-Jul-15 22:33N 34°37' E 135°23'  

Dump ship's entire track history